Billings, New York
Current Conditions -  °F | °C
As of 12:53 AM on Wednesday 22 Oct 2014 (Local Time) from KPOU Reporting Station
Overcast Overcast  
Wind Chill: 54°   Ceiling: 1800
Heat Index: 54°   Visibility: 8mi
Dew Point: 51°   Wind: 6mph
Humidity: 90%   Direction: 350°N
Pressure: 29.95"   Gusts: NA
Location:  41.67°N, 73.76°W
Report Text: KPOU 220453Z AUTO 35005KT 8SM SCT008 OVC018 12/11 A2995 RMK AO2 RAB40E53 SLP138 P0001 T01220106 401390089 TSNO
Loading
Personal Weather Stations






























Interactive Weather Map
Tropical Storm Tracking
New forecast layout! Learn more

10-Day Weather Forecast

Advertisements
Track Severe Weather on mobile